메인 페이지
METAR-TAF:

METAR-TAF

공항 :

Fort Lauderdale Executive Airport

포트로더데일, 플로리다, 미국

위도: 26-12-00N, 경도: 080-11-00W, 고도: 4m

현재 날씨관측

예보는 42분 전, 22:53시(UTC)에 발표되었습니다.
서남서12kt, 순간 최대 풍속 19kt
온도 29°C
습도 55%
기압 1008 hPa
시정: 16.1km
맑음

METAR: KFXE 312253Z AUTO 25012G19KT 10SM CLR 29/19 A2978 RMK AO2 SLP088 T02940189

시각: 19:35 (23:35 UTC)

예보

예보는 2 시간 39분 전, 20:56시(UTC)에 발표되었습니다.
예보 대상 시간: 31일 21시부터 01일 18시까지 (UTC)
남서12kt, 순간 최대 풍속 22kt
시정: 10km
고도 5000ft 상공 구름 보통
고도 25000ft 상공 구름 보통
01일 0000시부터 (UTC)
서남서8kt
시정: 10km
고도 3000ft 상공 구름 보통
고도 25000ft 상공 구름 많음
01일 0700시부터 (UTC)
서남서8kt
시정: 10km
고도 1500ft 상공 구름 보통
고도 2500ft 상공 구름 많음
시계 내 소나기
01일 1400시부터 (UTC)
서북서13kt
시정: 10km
고도 2500ft 상공 구름 보통
고도 25000ft 상공 구름 보통

TAF: KFXE 312056Z 3121/0118 22012G22KT P6SM SCT050 SCT250 FM010000 24008KT P6SM SCT030 BKN250 FM010700 25008KT P6SM VCSH SCT015 BKN025 FM011400 30013KT P6SM SCT025 SCT250

4,000개 이상의 공항 관측 자료 및 예보 (METAR 및 TAF 보고).

지도상에서 검색 가능한 기상관측소가 노란 점과 빨간 점으로 표시되어 있습니다.

기상관측소 명을 보려면 표시 위로 마우스를 이동하세요.

날씨 관측과 예보를 보려면 클릭하세요.

지도 변경 : 확대하려면 엑스 표시가 있는 녹색 버튼, 축소하려면 빼기 표시가 있는 녹색 버튼, 다음 페이지의 지도를 보려면 녹색 화살표를 클릭하세요.


METAR-TAF: